Time;durP1;ratioP1;P1;durP2;ratioP2;P2;SDS_P1;SDS_P2;PMS_P1;PMS_P2;Temp;Humidity;BMP_temperature;BMP_pressure;BME280_temperature;BME280_humidity;BME280_pressure;Samples;Min_cycle;Max_cycle;Signal;HPM_P1;HPM_P2
2021/05/19 00:01:47;;;;;;;2.00;1.90;;;23.90;62.60;;;;;;5074390;28;20540;-87
2021/05/19 00:04:14;;;;;;;1.80;1.70;;;23.80;62.50;;;;;;5074048;28;20448;-87
2021/05/19 00:06:40;;;;;;;1.77;1.53;;;23.80;62.50;;;;;;5073992;28;20441;-88
2021/05/19 00:09:10;;;;;;;2.47;2.27;;;23.80;62.60;;;;;;5074225;28;20473;-90
2021/05/19 00:11:36;;;;;;;1.87;1.77;;;23.80;62.50;;;;;;5074145;28;20510;-87
2021/05/19 00:14:04;;;;;;;2.10;2.00;;;23.80;62.50;;;;;;5074362;28;20448;-87
2021/05/19 00:16:31;;;;;;;1.60;1.50;;;23.80;62.50;;;;;;5074312;28;20777;-87
2021/05/19 00:18:57;;;;;;;1.70;1.43;;;23.80;62.50;;;;;;5074179;28;20441;-87
2021/05/19 00:21:24;;;;;;;2.00;1.90;;;23.80;62.50;;;;;;5074225;28;20443;-86
2021/05/19 00:23:51;;;;;;;1.60;1.50;;;23.80;62.50;;;;;;5073923;28;20486;-87
2021/05/19 00:26:19;;;;;;;1.70;1.60;;;23.80;62.50;;;;;;5073861;28;20441;-87
2021/05/19 00:28:50;;;;;;;1.20;1.03;;;23.80;62.40;;;;;;5073909;28;20485;-87
2021/05/19 00:31:18;;;;;;;1.43;1.33;;;23.80;62.50;;;;;;5073903;28;20451;-87
2021/05/19 00:33:45;;;;;;;1.53;1.43;;;23.80;62.50;;;;;;5074106;28;20473;-88
2021/05/19 00:36:11;;;;;;;1.47;1.37;;;23.80;62.30;;;;;;5073932;28;20471;-87
2021/05/19 00:38:37;;;;;;;1.30;1.17;;;23.80;62.30;;;;;;5073965;28;20533;-87
2021/05/19 00:41:06;;;;;;;1.47;1.37;;;23.80;62.40;;;;;;5073934;28;20452;-88
2021/05/19 00:43:33;;;;;;;1.33;1.23;;;23.80;62.40;;;;;;5073836;28;20451;-88
2021/05/19 00:45:59;;;;;;;1.97;1.87;;;23.80;62.30;;;;;;5073974;28;20463;-88
2021/05/19 00:48:26;;;;;;;1.77;1.67;;;23.80;62.20;;;;;;5073470;28;20469;-87
2021/05/19 00:50:52;;;;;;;1.77;1.67;;;23.80;62.20;;;;;;5073626;28;20826;-86
2021/05/19 00:53:19;;;;;;;1.43;1.33;;;23.80;62.30;;;;;;5073823;28;20528;-90
2021/05/19 00:55:45;;;;;;;1.50;1.40;;;23.80;62.30;;;;;;5073881;28;20441;-90
2021/05/19 00:58:13;;;;;;;1.90;1.80;;;23.80;62.40;;;;;;5073756;28;20536;-87
2021/05/19 01:00:41;;;;;;;1.23;1.13;;;23.80;62.20;;;;;;5074017;28;20441;-87
2021/05/19 01:03:08;;;;;;;1.97;1.83;;;23.80;62.30;;;;;;5073502;28;20963;-87
2021/05/19 01:05:38;;;;;;;2.57;1.20;;;23.80;62.20;;;;;;5074044;28;20478;-88
2021/05/19 01:10:50;;;;;;;1.40;1.30;;;23.80;62.10;;;;;;5073432;28;20404;-92
2021/05/19 01:13:16;;;;;;;2.17;2.07;;;23.70;62.10;;;;;;5073491;28;20764;-87
2021/05/19 01:15:44;;;;;;;1.57;1.43;;;23.70;62.00;;;;;;5073585;28;20440;-87
2021/05/19 01:18:11;;;;;;;1.50;1.40;;;23.70;62.00;;;;;;5073832;28;20517;-87
2021/05/19 01:20:37;;;;;;;1.30;1.20;;;23.70;62.10;;;;;;5077873;28;20442;-86
2021/05/19 01:23:07;;;;;;;2.17;1.40;;;23.70;62.20;;;;;;5077569;28;20440;-87
2021/05/19 01:25:34;;;;;;;1.60;1.50;;;23.70;62.10;;;;;;5077715;28;20436;-89
2021/05/19 01:28:02;;;;;;;2.10;2.00;;;23.70;62.10;;;;;;5077578;28;20526;-89
2021/05/19 01:30:30;;;;;;;1.90;1.80;;;23.70;61.90;;;;;;5077317;28;20850;-90
2021/05/19 01:32:57;;;;;;;1.30;1.20;;;23.70;61.80;;;;;;5077457;28;20441;-87
2021/05/19 01:35:23;;;;;;;1.50;1.40;;;23.70;62.00;;;;;;5077378;28;20963;-86
2021/05/19 01:37:50;;;;;;;2.00;1.90;;;23.70;61.90;;;;;;5077053;28;20531;-87
2021/05/19 01:40:20;;;;;;;1.83;1.73;;;23.70;61.90;;;;;;5077159;28;20802;-87
2021/05/19 01:42:48;;;;;;;1.90;1.80;;;23.70;61.90;;;;;;5076880;28;20433;-86
2021/05/19 01:45:16;;;;;;;1.60;1.50;;;23.70;61.90;;;;;;5077270;28;20472;-86
2021/05/19 01:47:45;;;;;;;3.00;2.03;;;23.70;62.00;;;;;;5077452;28;20436;-89
2021/05/19 01:50:14;;;;;;;1.37;1.27;;;23.70;62.00;;;;;;5076578;28;20535;-86
2021/05/19 01:52:42;;;;;;;1.40;1.30;;;23.70;62.10;;;;;;5077134;28;20436;-87
2021/05/19 01:55:11;;;;;;;2.03;1.93;;;23.70;62.00;;;;;;5076966;28;20444;-87
2021/05/19 01:57:38;;;;;;;1.40;1.30;;;23.70;61.90;;;;;;5077002;28;20458;-87
2021/05/19 02:00:07;;;;;;;2.27;2.17;;;23.70;62.10;;;;;;5076970;28;20436;-90
2021/05/19 02:02:34;;;;;;;1.83;1.73;;;23.70;62.00;;;;;;5077313;28;20551;-88
2021/05/19 02:05:01;;;;;;;1.50;1.40;;;23.70;62.00;;;;;;5077674;28;20826;-87
2021/05/19 02:07:27;;;;;;;2.33;2.13;;;23.70;62.00;;;;;;5080471;28;20449;-87
2021/05/19 02:09:54;;;;;;;1.70;1.60;;;23.70;62.00;;;;;;5078724;28;20487;-87
2021/05/19 02:12:20;;;;;;;2.23;2.13;;;23.70;61.90;;;;;;5077064;28;20463;-87
2021/05/19 02:14:48;;;;;;;1.70;1.60;;;23.70;62.10;;;;;;5076676;28;20448;-87
2021/05/19 02:17:14;;;;;;;2.07;1.87;;;23.70;61.90;;;;;;5076296;28;20501;-86
2021/05/19 02:19:40;;;;;;;1.90;1.80;;;23.70;61.90;;;;;;5076283;28;20496;-87
2021/05/19 02:22:07;;;;;;;2.30;2.20;;;23.80;62.10;;;;;;5076512;28;20437;-87
2021/05/19 02:24:33;;;;;;;1.80;1.70;;;23.70;61.90;;;;;;5076233;28;20452;-87
2021/05/19 02:27:00;;;;;;;1.80;1.70;;;23.60;61.90;;;;;;5076377;28;20452;-87
2021/05/19 02:29:26;;;;;;;1.60;1.50;;;23.70;61.80;;;;;;5075688;28;21006;-85
2021/05/19 02:31:53;;;;;;;1.83;1.73;;;23.70;61.90;;;;;;5076007;28;20528;-87
2021/05/19 02:34:20;;;;;;;3.07;1.87;;;23.70;61.80;;;;;;5076053;28;20475;-89
2021/05/19 02:36:46;;;;;;;1.70;1.60;;;23.70;61.80;;;;;;5076129;28;20544;-86
2021/05/19 02:39:13;;;;;;;1.27;1.17;;;23.70;61.80;;;;;;5075750;28;20543;-87
2021/05/19 02:41:41;;;;;;;1.97;1.87;;;23.60;61.70;;;;;;5075965;28;20445;-87
2021/05/19 02:44:09;;;;;;;1.53;1.43;;;23.70;61.80;;;;;;5075952;28;20498;-86
2021/05/19 02:46:35;;;;;;;2.40;2.20;;;23.60;61.70;;;;;;5075757;28;20443;-87
2021/05/19 02:49:04;;;;;;;1.53;1.43;;;23.60;61.70;;;;;;5075276;28;20514;-88
2021/05/19 02:51:31;;;;;;;1.60;1.50;;;23.60;61.80;;;;;;5075903;28;20551;-87
2021/05/19 02:53:57;;;;;;;1.50;1.40;;;23.60;61.60;;;;;;5075814;28;20443;-87
2021/05/19 02:56:24;;;;;;;2.20;1.60;;;23.60;61.70;;;;;;5075394;28;20858;-87
2021/05/19 02:58:50;;;;;;;1.60;1.50;;;23.60;61.70;;;;;;5075776;28;20498;-88
2021/05/19 03:01:17;;;;;;;1.70;1.60;;;23.60;61.70;;;;;;5075704;28;20441;-87
2021/05/19 03:03:43;;;;;;;1.93;1.83;;;23.60;61.70;;;;;;5075376;28;20432;-89
2021/05/19 03:06:11;;;;;;;2.40;2.23;;;23.60;61.80;;;;;;5075412;28;20544;-93
2021/05/19 03:08:37;;;;;;;2.20;2.00;;;23.60;61.70;;;;;;5075293;28;20511;-88
2021/05/19 03:11:04;;;;;;;1.70;1.43;;;23.60;61.60;;;;;;5075264;28;20501;-86
2021/05/19 03:13:31;;;;;;;2.23;2.03;;;23.70;61.90;;;;;;5075233;28;20456;-86
2021/05/19 03:15:57;;;;;;;2.00;1.90;;;23.70;61.70;;;;;;5075318;28;20474;-87
2021/05/19 03:18:24;;;;;;;2.20;2.10;;;23.60;61.50;;;;;;5075758;28;20441;-88
2021/05/19 03:20:50;;;;;;;1.90;1.80;;;23.60;61.50;;;;;;5075174;28;20497;-85
2021/05/19 03:23:17;;;;;;;2.67;2.47;;;23.60;61.70;;;;;;5075155;28;20448;-87
2021/05/19 03:25:45;;;;;;;1.43;1.33;;;23.80;61.80;;;;;;5074888;28;20439;-87
2021/05/19 03:28:11;;;;;;;2.10;2.00;;;23.60;61.70;;;;;;5075134;28;20535;-86
2021/05/19 03:30:38;;;;;;;1.97;1.83;;;23.60;61.70;;;;;;5074802;28;20514;-87
2021/05/19 03:33:06;;;;;;;1.80;1.70;;;23.60;61.60;;;;;;5074795;28;20493;-86
2021/05/19 03:35:32;;;;;;;1.40;1.30;;;23.60;61.70;;;;;;5074919;28;20462;-89
2021/05/19 03:37:58;;;;;;;1.40;1.30;;;23.60;61.70;;;;;;5074893;28;20852;-86
2021/05/19 03:40:25;;;;;;;2.10;2.00;;;23.60;61.70;;;;;;5074666;28;20776;-88
2021/05/19 03:42:52;;;;;;;1.60;1.50;;;23.60;61.70;;;;;;5074152;28;20950;-89
2021/05/19 03:45:21;;;;;;;2.33;2.23;;;23.60;61.70;;;;;;5075111;28;21151;-93
2021/05/19 03:47:50;;;;;;;2.40;2.30;;;23.60;61.60;;;;;;5074820;28;20446;-87
2021/05/19 03:50:17;;;;;;;1.90;1.80;;;23.60;61.70;;;;;;5074596;28;20491;-91
2021/05/19 03:52:43;;;;;;;2.30;2.20;;;23.60;61.70;;;;;;5074535;28;20986;-86
2021/05/19 03:55:11;;;;;;;2.27;2.17;;;23.60;61.60;;;;;;5074465;28;20441;-87
2021/05/19 03:57:38;;;;;;;2.73;2.53;;;23.60;61.70;;;;;;5074680;28;20445;-88
2021/05/19 04:00:08;;;;;;;2.50;2.30;;;23.60;61.70;;;;;;5074552;28;20453;-87
2021/05/19 04:02:34;;;;;;;2.67;2.50;;;23.60;61.70;;;;;;5074471;28;20441;-87
2021/05/19 04:05:00;;;;;;;2.10;1.87;;;23.70;61.70;;;;;;5074243;28;20459;-87
2021/05/19 04:07:27;;;;;;;1.40;1.30;;;23.60;61.70;;;;;;5074419;28;20451;-87
2021/05/19 04:09:53;;;;;;;1.97;1.83;;;23.50;61.60;;;;;;5074171;28;20880;-86
2021/05/19 04:12:19;;;;;;;2.03;1.93;;;23.50;61.60;;;;;;5074144;28;20957;-87
2021/05/19 04:14:46;;;;;;;1.80;1.70;;;23.50;61.60;;;;;;5073860;28;20445;-87
2021/05/19 04:17:13;;;;;;;1.43;1.33;;;23.50;61.60;;;;;;5074195;28;20456;-88
2021/05/19 04:19:39;;;;;;;2.73;2.53;;;23.70;62.10;;;;;;5074202;28;20446;-88
2021/05/19 04:22:06;;;;;;;2.03;1.93;;;23.50;61.70;;;;;;5073997;28;20811;-88
2021/05/19 04:24:32;;;;;;;3.67;2.50;;;23.50;61.80;;;;;;5074136;28;20454;-88
2021/05/19 04:26:58;;;;;;;2.30;2.17;;;23.50;61.80;;;;;;5073610;28;20544;-87
2021/05/19 04:29:25;;;;;;;3.10;2.90;;;23.50;61.90;;;;;;5073820;28;20514;-87
2021/05/19 04:31:52;;;;;;;3.43;3.23;;;23.50;61.90;;;;;;5073837;28;20455;-87
2021/05/19 04:34:19;;;;;;;3.03;2.83;;;23.50;61.80;;;;;;5073911;28;20461;-87
2021/05/19 04:36:45;;;;;;;2.60;2.40;;;23.50;61.90;;;;;;5073705;28;20783;-87
2021/05/19 04:39:11;;;;;;;2.87;2.67;;;23.50;62.10;;;;;;5073303;28;20485;-89
2021/05/19 04:41:38;;;;;;;2.27;2.07;;;23.60;62.20;;;;;;5073550;28;20591;-89
2021/05/19 04:44:04;;;;;;;2.80;2.60;;;23.60;62.20;;;;;;5073619;28;20516;-88
2021/05/19 04:46:30;;;;;;;2.07;1.97;;;23.60;62.30;;;;;;5073769;28;20501;-87
2021/05/19 04:48:59;;;;;;;1.87;1.77;;;23.70;62.40;;;;;;5073849;28;20592;-89
2021/05/19 04:51:25;;;;;;;1.77;1.67;;;23.60;62.30;;;;;;5073548;28;20448;-85
2021/05/19 04:53:52;;;;;;;2.00;1.80;;;23.60;62.30;;;;;;5072604;28;20494;-87
2021/05/19 04:56:18;;;;;;;2.97;2.27;;;23.60;62.50;;;;;;5073696;28;20441;-85
2021/05/19 04:58:44;;;;;;;2.60;2.17;;;23.70;62.80;;;;;;5073601;28;20777;-84
2021/05/19 05:01:11;;;;;;;3.47;2.43;;;23.60;62.70;;;;;;5073329;28;20486;-87
2021/05/19 05:03:37;;;;;;;2.57;2.37;;;23.60;62.90;;;;;;5073296;28;20531;-92
2021/05/19 05:06:05;;;;;;;3.60;2.40;;;23.60;62.90;;;;;;5073511;28;20458;-89
2021/05/19 05:08:31;;;;;;;2.50;1.93;;;23.60;63.00;;;;;;5073345;28;20438;-88
2021/05/19 05:10:58;;;;;;;4.10;2.37;;;23.60;63.00;;;;;;5073595;28;20497;-89
2021/05/19 05:13:24;;;;;;;4.70;1.90;;;23.60;63.10;;;;;;5073759;28;20424;-88
2021/05/19 05:15:51;;;;;;;2.57;2.37;;;23.60;63.10;;;;;;5073228;28;20925;-90
2021/05/19 05:18:17;;;;;;;2.63;2.40;;;23.60;63.00;;;;;;5073401;28;20864;-88
2021/05/19 05:20:43;;;;;;;3.50;2.20;;;23.60;63.10;;;;;;5073402;28;20448;-87
2021/05/19 05:23:11;;;;;;;2.67;2.47;;;23.60;63.20;;;;;;5073434;28;20477;-87
2021/05/19 05:25:37;;;;;;;2.20;2.00;;;23.70;63.30;;;;;;5073622;28;20436;-87
2021/05/19 05:28:04;;;;;;;2.40;2.20;;;23.60;63.10;;;;;;5073302;28;20554;-87
2021/05/19 05:30:30;;;;;;;2.13;1.93;;;23.60;63.10;;;;;;5073186;28;20472;-87
2021/05/19 05:32:56;;;;;;;2.63;1.70;;;23.60;63.20;;;;;;5072937;28;20470;-87
2021/05/19 05:35:23;;;;;;;2.27;1.73;;;23.60;63.20;;;;;;5073263;28;20461;-87
2021/05/19 05:37:49;;;;;;;3.40;2.27;;;23.60;63.20;;;;;;5073250;28;20448;-87
2021/05/19 05:40:16;;;;;;;3.43;2.60;;;23.60;63.20;;;;;;5073146;28;20437;-88
2021/05/19 05:42:43;;;;;;;4.13;2.30;;;23.60;63.10;;;;;;5072917;28;20489;-87
2021/05/19 05:45:10;;;;;;;2.67;2.47;;;23.60;63.20;;;;;;5073020;28;20434;-92
2021/05/19 05:47:36;;;;;;;3.30;3.00;;;23.60;63.20;;;;;;5073289;28;20443;-86
2021/05/19 05:50:04;;;;;;;2.47;2.20;;;23.60;63.20;;;;;;5072888;28;20492;-86
2021/05/19 05:52:31;;;;;;;2.30;2.10;;;23.60;63.10;;;;;;5073124;28;20440;-89
2021/05/19 05:54:58;;;;;;;4.93;2.40;;;23.60;63.10;;;;;;5072867;28;20494;-90
2021/05/19 05:57:25;;;;;;;3.60;1.70;;;23.60;63.20;;;;;;5073073;28;20441;-88
2021/05/19 05:59:51;;;;;;;3.00;2.30;;;23.60;63.00;;;;;;5072757;28;20954;-88
2021/05/19 06:02:18;;;;;;;3.70;2.97;;;23.60;63.20;;;;;;5072655;28;20525;-88
2021/05/19 06:04:45;;;;;;;3.50;2.23;;;23.60;63.10;;;;;;5075022;28;20465;-85
2021/05/19 06:07:11;;;;;;;2.97;2.33;;;23.60;63.20;;;;;;5077841;28;20927;-85
2021/05/19 06:09:38;;;;;;;2.57;2.30;;;23.60;63.00;;;;;;5076487;28;20983;-86
2021/05/19 06:12:05;;;;;;;9.47;3.40;;;23.60;62.70;;;;;;5058910;28;20943;-85
2021/05/19 06:14:32;;;;;;;3.40;2.60;;;23.60;62.50;;;;;;5076657;28;20501;-86
2021/05/19 06:17:02;;;;;;;2.93;2.40;;;23.70;62.40;;;;;;5076494;28;20436;-86
2021/05/19 06:19:28;;;;;;;8.20;2.70;;;23.70;62.60;;;;;;5076789;28;20450;-84
2021/05/19 06:21:55;;;;;;;7.13;2.90;;;23.60;62.30;;;;;;5077315;28;20462;-86
2021/05/19 06:24:21;;;;;;;5.53;2.47;;;23.60;62.40;;;;;;5076431;28;20541;-86
2021/05/19 06:26:48;;;;;;;3.43;3.00;;;23.60;62.50;;;;;;5076195;28;20984;-85
2021/05/19 06:29:15;;;;;;;4.83;3.60;;;23.60;62.60;;;;;;5076105;28;20529;-89
2021/05/19 06:31:42;;;;;;;4.93;2.73;;;23.60;62.80;;;;;;5076419;28;20927;-84
2021/05/19 06:34:08;;;;;;;4.80;3.40;;;23.60;62.70;;;;;;5076229;28;20494;-85
2021/05/19 06:36:37;;;;;;;4.23;3.30;;;23.60;62.60;;;;;;5075912;28;20994;-85
2021/05/19 06:39:04;;;;;;;3.23;2.80;;;23.60;62.40;;;;;;5075725;28;20452;-85
2021/05/19 06:41:31;;;;;;;3.57;2.90;;;23.60;62.30;;;;;;5076081;28;20477;-85
2021/05/19 06:43:57;;;;;;;2.63;2.43;;;23.60;62.40;;;;;;5075700;28;20445;-88
2021/05/19 06:46:25;;;;;;;2.50;2.17;;;23.60;62.50;;;;;;5075652;28;20449;-82
2021/05/19 06:48:53;;;;;;;2.60;2.00;;;23.60;62.50;;;;;;5075549;28;20483;-85
2021/05/19 06:51:19;;;;;;;4.70;1.87;;;23.60;62.30;;;;;;5075654;28;20436;-87
2021/05/19 06:53:46;;;;;;;3.77;1.83;;;23.60;62.30;;;;;;5075860;28;20440;-87
2021/05/19 06:56:14;;;;;;;2.80;2.57;;;23.60;62.40;;;;;;5075745;28;20444;-87
2021/05/19 06:58:41;;;;;;;2.60;2.40;;;23.60;63.50;;;;;;5075719;28;20487;-85
2021/05/19 07:01:07;;;;;;;4.53;2.53;;;23.60;62.70;;;;;;5075810;28;20486;-85
2021/05/19 07:03:33;;;;;;;4.47;2.40;;;23.60;62.50;;;;;;5075495;28;20444;-85
2021/05/19 07:06:00;;;;;;;13.10;3.40;;;23.60;62.60;;;;;;5075327;28;20486;-85
2021/05/19 07:08:26;;;;;;;3.00;2.70;;;23.60;62.00;;;;;;5075440;28;20448;-82
2021/05/19 07:10:53;;;;;;;11.47;3.87;;;23.60;60.80;;;;;;5074969;28;20491;-87
2021/05/19 07:13:19;;;;;;;3.70;2.80;;;23.50;60.80;;;;;;5075320;28;20437;-86
2021/05/19 07:15:51;;;;;;;3.47;2.53;;;23.50;61.00;;;;;;5074211;28;20498;-86
2021/05/19 07:18:17;;;;;;;5.83;2.13;;;23.50;61.10;;;;;;5058608;28;20483;-86
2021/05/19 07:20:43;;;;;;;5.80;2.20;;;23.50;61.30;;;;;;5074990;28;20445;-86
2021/05/19 07:23:11;;;;;;;3.50;2.07;;;23.50;61.60;;;;;;5075381;28;20449;-86
2021/05/19 07:25:37;;;;;;;4.70;2.17;;;23.60;62.00;;;;;;5074917;28;20445;-86
2021/05/19 07:28:05;;;;;;;4.37;1.97;;;23.60;62.20;;;;;;5074830;28;20437;-86
2021/05/19 07:30:31;;;;;;;5.37;2.10;;;23.60;62.20;;;;;;5074962;28;20531;-86
2021/05/19 07:32:57;;;;;;;2.90;1.80;;;23.60;62.10;;;;;;5074719;28;20441;-86
2021/05/19 07:35:24;;;;;;;3.03;1.90;;;23.60;62.20;;;;;;5074730;28;20555;-86
2021/05/19 07:37:50;;;;;;;2.63;1.97;;;23.60;61.90;;;;;;5074739;28;20438;-86
2021/05/19 07:40:17;;;;;;;5.17;2.00;;;23.60;62.00;;;;;;5074847;28;20804;-86
2021/05/19 07:42:44;;;;;;;3.20;1.83;;;23.60;62.20;;;;;;5074838;28;20432;-85
2021/05/19 07:45:11;;;;;;;8.03;1.93;;;23.60;62.30;;;;;;5074694;28;20829;-86
2021/05/19 07:47:37;;;;;;;5.97;2.03;;;23.70;62.60;;;;;;5074745;28;20449;-85
2021/05/19 07:50:05;;;;;;;3.07;1.87;;;23.70;62.80;;;;;;5074009;28;20484;-86
2021/05/19 07:52:32;;;;;;;4.00;2.00;;;23.70;62.80;;;;;;5074166;28;20445;-86
2021/05/19 07:54:58;;;;;;;3.27;2.00;;;23.70;62.60;;;;;;5056762;28;20465;-87
2021/05/19 07:57:28;;;;;;;3.20;1.90;;;23.70;62.40;;;;;;5074223;28;20498;-87
2021/05/19 08:00:07;;;;;;;4.30;2.27;;;23.70;62.40;;;;;;5074485;28;20619;-87
2021/05/19 08:02:33;;;;;;;2.27;1.77;;;23.90;62.70;;;;;;5074455;28;20495;-86
2021/05/19 08:04:59;;;;;;;5.40;1.90;;;23.70;62.40;;;;;;5074651;28;20533;-86
2021/05/19 08:07:25;;;;;;;5.63;2.23;;;23.80;62.40;;;;;;5074326;28;20445;-86
2021/05/19 08:09:52;;;;;;;2.07;1.60;;;23.80;62.50;;;;;;5073864;28;20986;-87
2021/05/19 08:12:18;;;;;;;2.57;1.87;;;23.90;62.70;;;;;;5074121;28;20449;-86
2021/05/19 08:14:45;;;;;;;2.40;1.90;;;23.80;63.10;;;;;;5056360;28;20437;-86
2021/05/19 08:17:12;;;;;;;2.80;1.63;;;23.80;62.80;;;;;;5073922;28;20441;-86
2021/05/19 08:19:38;;;;;;;4.13;2.30;;;23.80;62.90;;;;;;5073861;28;20450;-86
2021/05/19 08:22:07;;;;;;;3.80;1.87;;;23.80;62.80;;;;;;5073902;28;20449;-86
2021/05/19 08:24:34;;;;;;;2.77;1.50;;;23.80;62.70;;;;;;5073879;28;20436;-86
2021/05/19 08:27:00;;;;;;;2.80;2.20;;;23.80;62.70;;;;;;5073777;28;20445;-87
2021/05/19 08:29:27;;;;;;;3.50;2.07;;;23.90;62.80;;;;;;5073799;28;20839;-86
2021/05/19 08:31:54;;;;;;;2.30;1.50;;;23.80;62.70;;;;;;5073785;28;20452;-86
2021/05/19 08:34:20;;;;;;;3.30;2.10;;;23.80;62.60;;;;;;5073966;28;20462;-86
2021/05/19 08:36:46;;;;;;;3.10;2.00;;;23.90;62.80;;;;;;5073848;28;20446;-86
2021/05/19 08:39:13;;;;;;;2.13;1.67;;;23.90;62.80;;;;;;5073902;28;20498;-86
2021/05/19 08:41:43;;;;;;;2.93;2.10;;;23.90;62.90;;;;;;5073816;28;20447;-86
2021/05/19 08:44:10;;;;;;;3.93;1.70;;;24.00;63.00;;;;;;5073934;28;20491;-86
2021/05/19 08:46:43;;;;;;;4.70;2.20;;;23.90;62.90;;;;;;5073720;28;20467;-86
2021/05/19 08:49:11;;;;;;;2.73;1.80;;;23.90;62.90;;;;;;5073657;28;20844;-86
2021/05/19 08:51:38;;;;;;;1.90;1.80;;;23.90;63.00;;;;;;5073766;28;20442;-87
2021/05/19 08:54:07;;;;;;;3.20;2.27;;;23.90;63.00;;;;;;5073716;28;20451;-86
2021/05/19 08:56:36;;;;;;;1.73;1.53;;;23.90;62.90;;;;;;5073669;28;20480;-86
2021/05/19 08:59:03;;;;;;;3.93;1.80;;;24.10;63.30;;;;;;5073769;28;20448;-86
2021/05/19 09:01:38;;;;;;;1.80;1.50;;;23.90;62.90;;;;;;5073619;28;20442;-87
2021/05/19 09:04:06;;;;;;;3.00;1.70;;;23.90;62.80;;;;;;5073415;28;20460;-86
2021/05/19 09:06:34;;;;;;;2.93;1.80;;;23.90;62.80;;;;;;5073384;28;20452;-86
2021/05/19 09:09:03;;;;;;;4.23;2.27;;;23.90;62.80;;;;;;5073633;28;20520;-86
2021/05/19 09:11:29;;;;;;;1.90;1.70;;;23.90;62.70;;;;;;5073321;28;20441;-86
2021/05/19 09:13:56;;;;;;;2.40;1.60;;;23.90;62.80;;;;;;5073594;28;20581;-86
2021/05/19 09:16:27;;;;;;;2.87;2.57;;;23.90;62.80;;;;;;5073628;28;20445;-86
2021/05/19 09:18:54;;;;;;;2.80;1.50;;;24.00;62.90;;;;;;5073466;28;20507;-86
2021/05/19 09:21:38;;;;;;;2.30;1.60;;;24.00;62.80;;;;;;5073539;28;20862;-87
2021/05/19 09:24:09;;;;;;;1.40;1.30;;;24.00;62.90;;;;;;5073058;28;20532;-86
2021/05/19 09:26:51;;;;;;;3.97;2.03;;;24.00;63.00;;;;;;5073524;28;20440;-86
2021/05/19 09:29:22;;;;;;;3.00;1.33;;;24.10;63.00;;;;;;5073225;28;20498;-87
2021/05/19 09:31:53;;;;;;;1.50;1.40;;;24.20;63.00;;;;;;5073398;28;20445;-89
2021/05/19 09:34:28;;;;;;;3.13;1.37;;;24.20;63.00;;;;;;5072803;28;20609;-87
2021/05/19 09:37:13;;;;;;;2.37;1.87;;;24.10;62.80;;;;;;5073179;28;20455;-89
2021/05/19 09:39:47;;;;;;;2.60;1.70;;;24.10;62.80;;;;;;5056537;28;20445;-86
2021/05/19 09:42:14;;;;;;;2.30;1.63;;;24.20;62.90;;;;;;5077126;28;20466;-89
2021/05/19 09:44:43;;;;;;;2.00;1.67;;;24.20;63.00;;;;;;5078560;28;20439;-86
2021/05/19 09:47:10;;;;;;;3.70;2.00;;;24.20;62.90;;;;;;5076877;28;20530;-87
2021/05/19 09:49:36;;;;;;;2.10;1.90;;;24.20;63.00;;;;;;5076589;28;21020;-91
2021/05/19 09:52:11;;;;;;;2.43;1.40;;;24.20;62.90;;;;;;5077935;28;20453;-90
2021/05/19 09:54:42;;;;;;;1.70;1.30;;;24.20;62.80;;;;;;5077353;28;20444;-83
2021/05/19 09:57:10;;;;;;;2.23;1.60;;;24.20;61.90;;;;;;5076603;28;21017;-84
2021/05/19 09:59:37;;;;;;;2.47;1.80;;;24.10;60.30;;;;;;5076962;28;20466;-88
2021/05/19 10:02:04;;;;;;;3.93;1.60;;;24.10;60.00;;;;;;5076598;28;20449;-86
2021/05/19 10:04:34;;;;;;;4.27;2.00;;;24.10;60.20;;;;;;5058651;28;21029;-87
2021/05/19 10:07:01;;;;;;;3.00;1.60;;;24.00;60.10;;;;;;5076715;28;20473;-87
2021/05/19 10:09:28;;;;;;;1.20;1.10;;;24.00;61.00;;;;;;5076357;28;20486;-87
2021/05/19 10:11:55;;;;;;;2.30;1.70;;;24.00;61.20;;;;;;5076553;28;20789;-87
2021/05/19 10:14:23;;;;;;;2.33;1.53;;;24.00;61.30;;;;;;5076574;28;20868;-87
2021/05/19 10:16:54;;;;;;;1.70;1.40;;;24.00;61.40;;;;;;5076304;28;20440;-86
2021/05/19 10:19:27;;;;;;;2.80;1.20;;;24.00;61.40;;;;;;5076554;28;20900;-87
2021/05/19 10:21:55;;;;;;;3.50;1.40;;;24.00;61.50;;;;;;5076115;28;20438;-87
2021/05/19 10:24:23;;;;;;;3.63;1.43;;;24.00;61.50;;;;;;5076500;28;20445;-90
2021/05/19 10:27:04;;;;;;;1.83;1.33;;;24.20;61.80;;;;;;5077617;28;20914;-87
2021/05/19 10:29:50;;;;;;;3.50;1.43;;;24.10;61.60;;;;;;5076265;28;20468;-86
2021/05/19 10:32:29;;;;;;;1.77;1.60;;;24.10;61.60;;;;;;5075927;28;20437;-86
2021/05/19 10:34:58;;;;;;;1.83;1.53;;;24.10;61.70;;;;;;5076048;28;20501;-87
2021/05/19 10:37:50;;;;;;;3.00;1.40;;;24.10;61.80;;;;;;5075936;28;20441;-87
2021/05/19 10:40:30;;;;;;;5.20;1.60;;;24.10;61.70;;;;;;5056876;28;20453;-87
2021/05/19 10:43:03;;;;;;;2.03;1.23;;;24.10;61.80;;;;;;5075813;28;20813;-87
2021/05/19 10:45:30;;;;;;;1.43;1.07;;;24.10;61.90;;;;;;5075861;28;20544;-87
2021/05/19 10:47:56;;;;;;;2.17;1.60;;;24.10;62.20;;;;;;5075726;28;20445;-87
2021/05/19 10:50:34;;;;;;;7.20;1.30;;;24.10;62.20;;;;;;5057738;28;20477;-87
2021/05/19 10:58:51;;;;;;;4.80;1.37;;;24.10;62.40;;;;;;5075906;28;20501;-87
2021/05/19 11:01:37;;;;;;;2.47;1.90;;;24.10;62.30;;;;;;5075652;28;20454;-87
2021/05/19 11:04:16;;;;;;;1.33;1.00;;;24.10;62.30;;;;;;5075435;28;20510;-87
2021/05/19 11:07:04;;;;;;;4.33;1.50;;;24.10;62.40;;;;;;5075588;28;20480;-87
2021/05/19 11:09:32;;;;;;;3.77;1.80;;;24.10;62.20;;;;;;5075326;28;20473;-87
2021/05/19 11:12:54;;;;;;;9.43;3.37;;;24.10;62.10;;;;;;5075374;28;20443;-87
2021/05/19 11:15:56;;;;;;;6.40;2.77;;;24.10;62.10;;;;;;5075587;28;20437;-87
2021/05/19 11:18:33;;;;;;;7.03;3.30;;;24.10;62.00;;;;;;5075037;28;20954;-87
2021/05/19 11:21:02;;;;;;;6.00;2.27;;;24.10;61.80;;;;;;5075232;28;20445;-87
2021/05/19 11:23:29;;;;;;;3.90;2.37;;;24.10;61.30;;;;;;5075229;28;20863;-87
2021/05/19 11:26:09;;;;;;;5.90;2.30;;;24.10;61.40;;;;;;5074928;28;20445;-88
2021/05/19 11:28:35;;;;;;;6.60;2.80;;;24.10;61.20;;;;;;5074930;28;20446;-87
2021/05/19 11:31:12;;;;;;;8.80;2.63;;;24.00;60.90;;;;;;5074882;28;20490;-87
2021/05/19 11:33:56;;;;;;;3.43;2.70;;;24.00;61.30;;;;;;5075174;28;20446;-88
2021/05/19 11:36:41;;;;;;;9.00;3.80;;;24.10;61.50;;;;;;5074786;28;20434;-88
2021/05/19 11:39:23;;;;;;;5.57;2.60;;;24.10;61.60;;;;;;5074817;28;20512;-87
2021/05/19 11:41:50;;;;;;;7.20;2.77;;;24.10;61.80;;;;;;5057010;28;20444;-88
2021/05/19 11:44:30;;;;;;;7.07;2.60;;;24.10;61.90;;;;;;5074769;28;20452;-88
2021/05/19 11:46:57;;;;;;;5.27;2.70;;;24.20;62.00;;;;;;5074431;28;20441;-87
2021/05/19 11:49:23;;;;;;;8.27;3.33;;;24.10;61.90;;;;;;5073809;28;20469;-86
2021/05/19 11:51:50;;;;;;;8.40;2.80;;;24.10;62.00;;;;;;5074240;28;20442;-87
2021/05/19 11:54:16;;;;;;;5.87;2.93;;;24.10;62.00;;;;;;5074438;28;20438;-86
2021/05/19 11:56:45;;;;;;;5.77;2.73;;;24.10;62.10;;;;;;5074473;28;20445;-86
2021/05/19 11:59:21;;;;;;;6.20;2.10;;;24.10;62.30;;;;;;5073994;28;20924;-86
2021/05/19 12:02:04;;;;;;;3.40;2.40;;;24.10;62.20;;;;;;5073995;28;20441;-86
2021/05/19 12:04:34;;;;;;;6.67;2.43;;;24.10;62.30;;;;;;5074199;28;20858;-86
2021/05/19 12:07:03;;;;;;;5.73;2.60;;;24.10;62.30;;;;;;5074042;28;21000;-86
2021/05/19 12:09:30;;;;;;;5.23;2.30;;;24.20;62.30;;;;;;5073564;28;20438;-86
2021/05/19 12:12:05;;;;;;;6.27;2.70;;;24.30;62.30;;;;;;5073818;28;20449;-86
2021/05/19 12:14:32;;;;;;;3.30;2.40;;;24.20;62.20;;;;;;5073954;28;20437;-86
2021/05/19 12:17:01;;;;;;;3.20;2.77;;;24.20;62.30;;;;;;5074260;28;20444;-86
2021/05/19 12:19:29;;;;;;;4.23;2.77;;;24.20;62.40;;;;;;5060339;28;20982;-88
2021/05/19 12:22:07;;;;;;;5.10;2.07;;;24.20;62.30;;;;;;5074327;28;20450;-84
2021/05/19 12:24:35;;;;;;;2.17;1.80;;;24.30;61.80;;;;;;5074812;28;20433;-88
2021/05/19 12:27:02;;;;;;;4.53;2.00;;;24.30;61.70;;;;;;5078319;28;20442;-85
2021/05/19 12:29:39;;;;;;;2.90;1.77;;;24.30;61.70;;;;;;5073695;28;20453;-87
2021/05/19 12:32:11;;;;;;;3.60;1.70;;;24.40;61.40;;;;;;5073767;28;20429;-88
2021/05/19 12:34:37;;;;;;;4.77;2.00;;;24.40;61.80;;;;;;5074128;28;20464;-87
2021/05/19 12:37:05;;;;;;;5.10;2.10;;;24.40;61.90;;;;;;5073946;28;20434;-88
2021/05/19 12:39:32;;;;;;;4.80;1.90;;;24.40;62.00;;;;;;5073759;28;20503;-87
2021/05/19 12:41:59;;;;;;;3.73;2.13;;;24.40;61.90;;;;;;5074444;28;20441;-88
2021/05/19 12:44:29;;;;;;;3.07;2.00;;;24.40;62.00;;;;;;5073889;28;20441;-87
2021/05/19 12:47:00;;;;;;;6.07;1.80;;;24.40;62.00;;;;;;5073865;28;20477;-88
2021/05/19 12:49:27;;;;;;;3.30;2.07;;;24.40;61.90;;;;;;5073410;28;20476;-88
2021/05/19 12:51:55;;;;;;;2.93;1.97;;;24.40;62.00;;;;;;5073606;28;20446;-87
2021/05/19 12:54:28;;;;;;;5.83;2.23;;;24.50;62.10;;;;;;5073533;28;20439;-88
2021/05/19 12:57:04;;;;;;;4.10;1.87;;;24.30;62.00;;;;;;5073856;28;20540;-88
2021/05/19 12:59:54;;;;;;;5.70;1.70;;;24.30;62.10;;;;;;5056327;28;20446;-88
2021/05/19 13:02:22;;;;;;;3.00;1.90;;;24.40;61.80;;;;;;5073545;28;20454;-88
2021/05/19 13:04:49;;;;;;;6.07;1.77;;;24.30;61.50;;;;;;5073516;28;20470;-88